createdAt,value
2018-01-12T00:00:13.619Z,0
2018-01-12T00:01:16.029Z,0
2018-01-12T00:02:18.435Z,0
2018-01-12T00:03:21.138Z,0
2018-01-12T00:04:23.546Z,0
2018-01-12T00:05:25.956Z,0
2018-01-12T00:06:28.651Z,0
2018-01-12T00:07:31.344Z,0
2018-01-12T00:08:34.033Z,0
2018-01-12T00:09:36.449Z,0
2018-01-12T00:10:38.859Z,0
2018-01-12T00:11:41.549Z,0
2018-01-12T00:12:43.967Z,0
2018-01-12T00:13:46.371Z,0
2018-01-12T00:14:48.786Z,0
2018-01-12T00:15:51.197Z,0
2018-01-12T00:16:53.600Z,0
2018-01-12T00:17:56.010Z,0
2018-01-12T00:18:58.754Z,0
2018-01-12T00:20:01.177Z,0
2018-01-12T00:21:03.578Z,0
2018-01-12T00:22:05.992Z,0
2018-01-12T00:23:08.697Z,0
2018-01-12T00:24:11.088Z,0
2018-01-12T00:25:13.797Z,0
2018-01-12T00:26:16.200Z,0
2018-01-12T00:27:18.896Z,0
2018-01-12T00:28:21.306Z,0
2018-01-12T00:29:23.711Z,0
2018-01-12T00:30:26.115Z,0
2018-01-12T00:31:28.534Z,0
2018-01-12T00:32:30.944Z,0
2018-01-12T00:33:33.354Z,0
2018-01-12T00:34:36.074Z,0
2018-01-12T00:35:38.483Z,0
2018-01-12T00:36:41.513Z,0
2018-01-12T00:37:43.874Z,0
2018-01-12T00:38:46.278Z,0
2018-01-12T00:39:48.698Z,0
2018-01-12T00:40:51.097Z,0
2018-01-12T00:41:53.513Z,0
2018-01-12T00:42:55.918Z,0
2018-01-12T00:43:58.619Z,0
2018-01-12T00:45:01.317Z,0
2018-01-12T00:46:03.730Z,0
2018-01-12T00:47:06.136Z,0
2018-01-12T00:48:08.543Z,0
2018-01-12T00:49:10.955Z,0
2018-01-12T00:50:13.665Z,0
2018-01-12T00:51:16.072Z,0
2018-01-12T00:52:18.490Z,0
2018-01-12T00:53:20.891Z,0
2018-01-12T00:54:23.303Z,0
2018-01-12T00:55:25.721Z,0
2018-01-12T00:56:28.130Z,0
2018-01-12T00:57:30.536Z,0
2018-01-12T00:58:32.945Z,0
2018-01-12T00:59:35.652Z,0
2018-01-12T01:00:38.061Z,0
2018-01-12T01:01:40.479Z,0
2018-01-12T01:02:42.875Z,0
2018-01-12T01:03:45.285Z,0
2018-01-12T01:04:47.705Z,0
2018-01-12T01:05:50.112Z,0
2018-01-12T01:06:52.525Z,0
2018-01-12T01:07:54.934Z,0
2018-01-12T01:08:57.356Z,0
2018-01-12T01:09:59.766Z,0
2018-01-12T01:11:02.184Z,0
2018-01-12T01:12:04.582Z,0
2018-01-12T01:13:06.997Z,0
2018-01-12T01:14:09.417Z,0
2018-01-12T01:15:11.815Z,0
2018-01-12T01:16:14.232Z,0
2018-01-12T01:17:16.645Z,0
2018-01-12T01:18:19.053Z,0
2018-01-12T01:19:21.742Z,0
2018-01-12T01:20:24.148Z,0
2018-01-12T01:21:26.562Z,0
2018-01-12T01:22:28.969Z,0
2018-01-12T01:23:31.668Z,0
2018-01-12T01:24:34.091Z,0
2018-01-12T01:25:36.776Z,0
2018-01-12T01:26:39.490Z,0
2018-01-12T01:27:41.898Z,0
2018-01-12T01:28:44.308Z,0
2018-01-12T01:29:46.724Z,0
2018-01-12T01:30:49.140Z,0
2018-01-12T01:31:51.541Z,0
2018-01-12T01:32:54.243Z,0
2018-01-12T01:33:56.654Z,0
2018-01-12T01:34:59.061Z,0
2018-01-12T01:36:01.483Z,0
2018-01-12T01:37:03.893Z,0
2018-01-12T01:38:06.295Z,0
2018-01-12T01:39:08.722Z,0
2018-01-12T01:40:11.405Z,0
2018-01-12T01:41:13.818Z,0
2018-01-12T01:42:16.226Z,0
2018-01-12T01:43:18.638Z,0
2018-01-12T01:44:21.045Z,0
2018-01-12T01:45:23.762Z,0
2018-01-12T01:46:26.166Z,0
2018-01-12T01:47:28.561Z,0
2018-01-12T01:48:30.989Z,0
2018-01-12T01:49:33.394Z,0
2018-01-12T01:50:35.802Z,0
2018-01-12T01:51:38.213Z,0
2018-01-12T01:52:40.619Z,0
2018-01-12T01:53:43.028Z,0
2018-01-12T01:54:45.740Z,0
2018-01-12T01:55:48.150Z,0
2018-01-12T01:56:50.567Z,0
2018-01-12T01:57:52.977Z,0
2018-01-12T01:58:55.392Z,0
2018-01-12T01:59:58.085Z,0
2018-01-12T02:01:00.800Z,0
2018-01-12T02:02:03.210Z,0
2018-01-12T02:03:05.909Z,0
2018-01-12T02:04:08.311Z,0
2018-01-12T02:05:10.729Z,0
2018-01-12T02:06:13.134Z,0
2018-01-12T02:07:15.547Z,0
2018-01-12T02:08:17.953Z,0
2018-01-12T02:09:20.362Z,0
2018-01-12T02:10:22.764Z,0
2018-01-12T02:11:25.174Z,0
2018-01-12T02:12:27.890Z,0
2018-01-12T02:13:30.304Z,0
2018-01-12T02:14:32.711Z,0
2018-01-12T02:15:35.126Z,0
2018-01-12T02:16:37.528Z,0
2018-01-12T02:17:40.224Z,0
2018-01-12T02:18:42.639Z,0
2018-01-12T02:19:45.048Z,0
2018-01-12T02:20:47.458Z,0
2018-01-12T02:21:49.873Z,0
2018-01-12T02:22:52.291Z,0
2018-01-12T02:23:54.981Z,0
2018-01-12T02:24:57.711Z,0
2018-01-12T02:26:00.125Z,0
2018-01-12T02:27:02.531Z,0
2018-01-12T02:28:04.941Z,0
2018-01-12T02:29:07.340Z,0
2018-01-12T02:30:09.745Z,0
2018-01-12T02:31:12.148Z,0
2018-01-12T02:32:14.559Z,0
2018-01-12T02:33:16.970Z,0
2018-01-12T02:34:19.386Z,0
2018-01-12T02:35:21.783Z,0
2018-01-12T02:36:24.774Z,0
2018-01-12T02:37:27.190Z,0
2018-01-12T02:38:29.596Z,0
2018-01-12T02:39:32.291Z,0
2018-01-12T02:40:34.706Z,0
2018-01-12T02:41:37.105Z,0
2018-01-12T02:42:39.524Z,0
2018-01-12T02:43:41.929Z,0
2018-01-12T02:44:44.339Z,0
2018-01-12T02:45:46.744Z,0
2018-01-12T02:46:49.169Z,0
2018-01-12T02:47:51.857Z,0
2018-01-12T02:48:54.829Z,0
2018-01-12T02:49:57.245Z,0
2018-01-12T02:50:59.653Z,0
2018-01-12T02:52:02.093Z,0
2018-01-12T02:53:04.513Z,0
2018-01-12T02:54:06.908Z,0
2018-01-12T02:55:09.607Z,0
2018-01-12T02:56:12.319Z,0
2018-01-12T02:57:15.006Z,0
2018-01-12T02:58:17.418Z,0
2018-01-12T02:59:20.106Z,0
2018-01-12T03:00:22.512Z,0
2018-01-12T03:01:25.223Z,0
2018-01-12T03:02:27.626Z,0
2018-01-12T03:03:30.030Z,0
2018-01-12T03:04:32.441Z,0
2018-01-12T03:05:34.848Z,0
2018-01-12T03:06:37.256Z,0
2018-01-12T03:07:39.674Z,0
2018-01-12T03:08:42.079Z,0
2018-01-12T03:09:44.489Z,0
2018-01-12T03:10:46.908Z,0
2018-01-12T03:11:49.320Z,0
2018-01-12T03:12:51.726Z,0
2018-01-12T03:13:54.142Z,0
2018-01-12T03:14:56.561Z,0
2018-01-12T03:15:58.973Z,0
2018-01-12T03:17:01.385Z,0
2018-01-12T03:18:03.796Z,0
2018-01-12T03:19:06.208Z,0
2018-01-12T03:20:08.610Z,0
2018-01-12T03:21:11.026Z,0
2018-01-12T03:22:13.452Z,0
2018-01-12T03:23:15.860Z,0
2018-01-12T03:24:18.557Z,0
2018-01-12T03:25:20.968Z,0
2018-01-12T03:26:23.368Z,0
2018-01-12T03:27:25.798Z,0
2018-01-12T03:28:28.487Z,0
2018-01-12T03:29:30.893Z,0
2018-01-12T03:30:33.304Z,0
2018-01-12T03:31:35.714Z,0
2018-01-12T03:32:38.117Z,0
2018-01-12T03:33:40.811Z,0
2018-01-12T03:34:43.208Z,0
2018-01-12T03:35:45.906Z,0
2018-01-12T03:36:48.320Z,0
2018-01-12T03:37:50.730Z,0
2018-01-12T03:38:53.145Z,0
2018-01-12T03:39:55.551Z,0
2018-01-12T03:40:57.966Z,0
2018-01-12T03:42:00.668Z,0
2018-01-12T03:43:03.384Z,0
2018-01-12T03:44:05.784Z,0
2018-01-12T03:45:08.198Z,0
2018-01-12T03:46:11.176Z,0
2018-01-12T03:47:13.588Z,0
2018-01-12T03:48:16.000Z,0
2018-01-12T03:49:18.696Z,0
2018-01-12T03:50:21.110Z,0
2018-01-12T03:51:23.512Z,0
2018-01-12T03:52:25.933Z,0
2018-01-12T03:53:28.622Z,0
2018-01-12T03:54:31.315Z,0
2018-01-12T03:55:34.013Z,0
2018-01-12T03:56:36.428Z,0
2018-01-12T03:57:38.833Z,0
2018-01-12T03:58:41.243Z,0
2018-01-12T03:59:43.654Z,0
2018-01-12T04:00:46.372Z,0
2018-01-12T04:01:48.777Z,0
2018-01-12T04:02:51.194Z,0
2018-01-12T04:03:53.596Z,0
2018-01-12T04:04:56.015Z,0
2018-01-12T04:05:58.985Z,0
2018-01-12T04:07:01.688Z,0
2018-01-12T04:08:04.097Z,0
2018-01-12T04:09:06.503Z,0
2018-01-12T04:10:09.208Z,0
2018-01-12T04:11:11.933Z,0
2018-01-12T04:12:14.308Z,0
2018-01-12T04:13:16.717Z,0
2018-01-12T04:14:19.123Z,0
2018-01-12T04:15:21.540Z,0
2018-01-12T04:16:23.950Z,0
2018-01-12T04:17:26.353Z,0
2018-01-12T04:18:28.760Z,0
2018-01-12T04:19:31.174Z,0
2018-01-12T04:20:33.914Z,0
2018-01-12T04:21:36.322Z,0
2018-01-12T04:22:38.728Z,0
2018-01-12T04:23:41.138Z,0
2018-01-12T04:24:43.568Z,0
2018-01-12T04:25:46.025Z,0
2018-01-12T04:26:48.378Z,0
2018-01-12T04:27:50.844Z,0
2018-01-12T04:28:53.214Z,0
2018-01-12T04:29:55.620Z,0
2018-01-12T04:30:58.035Z,0
2018-01-12T04:32:00.447Z,0
2018-01-12T04:33:02.858Z,0
2018-01-12T04:34:05.276Z,0
2018-01-12T04:35:07.692Z,0
2018-01-12T04:36:10.090Z,0
2018-01-12T04:37:12.502Z,0
2018-01-12T04:38:14.914Z,0
2018-01-12T04:39:17.326Z,0
2018-01-12T04:40:19.738Z,0
2018-01-12T04:41:22.149Z,0
2018-01-12T04:42:24.839Z,0
2018-01-12T04:43:27.260Z,0
2018-01-12T04:44:29.665Z,0
2018-01-12T04:45:32.070Z,0
2018-01-12T04:46:34.481Z,0
2018-01-12T04:47:36.895Z,0
2018-01-12T04:48:39.302Z,0
2018-01-12T04:49:42.001Z,0
2018-01-12T04:50:44.405Z,0
2018-01-12T04:51:46.820Z,0
2018-01-12T04:52:49.507Z,0
2018-01-12T04:53:51.921Z,0
2018-01-12T04:54:54.325Z,0
2018-01-12T04:55:56.738Z,0
2018-01-12T04:56:59.143Z,0
2018-01-12T04:58:01.553Z,0
2018-01-12T04:59:03.983Z,0
2018-01-12T05:00:06.656Z,0
2018-01-12T05:01:09.074Z,0
2018-01-12T05:02:11.764Z,0
2018-01-12T05:03:14.184Z,0
2018-01-12T05:04:16.588Z,0
2018-01-12T05:05:19.004Z,0
2018-01-12T05:06:21.410Z,0
2018-01-12T05:07:23.825Z,0
2018-01-12T05:08:26.236Z,0
2018-01-12T05:09:28.638Z,0
2018-01-12T05:10:31.036Z,0
2018-01-12T05:11:33.443Z,0
2018-01-12T05:12:35.850Z,0
2018-01-12T05:13:38.261Z,0
2018-01-12T05:14:40.671Z,0
2018-01-12T05:15:43.091Z,0
2018-01-12T05:16:45.489Z,0
2018-01-12T05:17:47.901Z,0
2018-01-12T05:18:50.316Z,0
2018-01-12T05:19:52.726Z,0
2018-01-12T05:20:55.144Z,0
2018-01-12T05:21:57.590Z,0
2018-01-12T05:22:59.954Z,0
2018-01-12T05:24:02.382Z,0
2018-01-12T05:25:04.785Z,0
2018-01-12T05:26:07.198Z,0
2018-01-12T05:27:09.604Z,0
2018-01-12T05:28:12.020Z,0
2018-01-12T05:29:14.426Z,0
2018-01-12T05:30:16.837Z,0
2018-01-12T05:31:19.521Z,0
2018-01-12T05:32:22.243Z,0
2018-01-12T05:33:24.673Z,0
2018-01-12T05:34:27.074Z,0
2018-01-12T05:35:29.482Z,0
2018-01-12T05:36:31.880Z,0
2018-01-12T05:37:34.578Z,0
2018-01-12T05:38:36.989Z,0
2018-01-12T05:39:39.397Z,0
2018-01-12T05:40:41.803Z,0
2018-01-12T05:41:44.212Z,0
2018-01-12T05:42:46.632Z,0
2018-01-12T05:43:49.325Z,0
2018-01-12T05:44:51.730Z,0
2018-01-12T05:45:54.142Z,0
2018-01-12T05:46:56.843Z,0
2018-01-12T05:47:59.241Z,0
2018-01-12T05:49:01.656Z,0
2018-01-12T05:50:04.354Z,0
2018-01-12T05:51:06.766Z,0
2018-01-12T05:52:09.174Z,0
2018-01-12T05:53:11.586Z,0
2018-01-12T05:54:13.983Z,0
2018-01-12T05:55:16.408Z,0
2018-01-12T05:56:19.409Z,0
2018-01-12T05:57:21.807Z,0
2018-01-12T05:58:24.232Z,0
2018-01-12T05:59:26.953Z,0
2018-01-12T06:00:29.354Z,0
2018-01-12T06:01:31.764Z,0
2018-01-12T06:02:34.181Z,0
2018-01-12T06:03:36.586Z,0
2018-01-12T06:04:39.289Z,0
2018-01-12T06:05:41.979Z,0
2018-01-12T06:06:44.393Z,0
2018-01-12T06:07:47.085Z,0
2018-01-12T06:08:49.489Z,0
2018-01-12T06:09:51.902Z,0
2018-01-12T06:10:54.593Z,0
2018-01-12T06:11:57.004Z,0
2018-01-12T06:12:59.423Z,0
2018-01-12T06:14:01.821Z,0
2018-01-12T06:15:04.518Z,0
2018-01-12T06:16:06.921Z,0
2018-01-12T06:17:09.336Z,0
2018-01-12T06:18:11.751Z,0
2018-01-12T06:19:14.156Z,0
2018-01-12T06:20:16.557Z,0
2018-01-12T06:21:19.259Z,0
2018-01-12T06:22:21.665Z,0
2018-01-12T06:23:24.073Z,0
2018-01-12T06:24:26.489Z,0
2018-01-12T06:25:28.901Z,0
2018-01-12T06:26:31.304Z,0
2018-01-12T06:27:33.722Z,0
2018-01-12T06:28:36.127Z,0
2018-01-12T06:29:38.544Z,0
2018-01-12T06:30:41.240Z,0
2018-01-12T06:31:43.647Z,0
2018-01-12T06:32:46.046Z,0
2018-01-12T06:33:48.456Z,0
2018-01-12T06:34:50.864Z,0
2018-01-12T06:35:53.270Z,0
2018-01-12T06:36:55.684Z,0
2018-01-12T06:37:58.090Z,0
2018-01-12T06:39:00.501Z,0
2018-01-12T06:40:02.930Z,0
2018-01-12T06:41:05.324Z,0
2018-01-12T06:42:07.736Z,0
2018-01-12T06:43:10.147Z,0
2018-01-12T06:44:12.561Z,0
2018-01-12T06:45:14.954Z,0
2018-01-12T06:46:17.375Z,0
2018-01-12T06:47:19.792Z,0
2018-01-12T06:48:22.483Z,0
2018-01-12T06:49:25.179Z,0
2018-01-12T06:50:27.584Z,0
2018-01-12T06:51:29.992Z,0
2018-01-12T06:52:32.407Z,0
2018-01-12T06:53:34.812Z,0
2018-01-12T06:54:37.219Z,0
2018-01-12T06:55:39.622Z,0
2018-01-12T06:56:42.032Z,0
2018-01-12T06:57:44.433Z,0
2018-01-12T06:58:46.850Z,0
2018-01-12T06:59:49.540Z,0
2018-01-12T07:00:51.951Z,0
2018-01-12T07:01:54.349Z,0
2018-01-12T07:02:56.762Z,0
2018-01-12T07:03:59.452Z,0
2018-01-12T07:05:01.863Z,0
2018-01-12T07:06:04.265Z,0
2018-01-12T07:07:06.681Z,0
2018-01-12T07:08:09.095Z,0
2018-01-12T07:09:12.107Z,0
2018-01-12T07:10:14.513Z,0
2018-01-12T07:11:16.929Z,0
2018-01-12T07:12:19.342Z,0
2018-01-12T07:13:21.745Z,0
2018-01-12T07:14:24.152Z,0
2018-01-12T07:15:26.844Z,0
2018-01-12T07:16:29.529Z,0
2018-01-12T07:17:31.934Z,0
2018-01-12T07:18:34.354Z,0
2018-01-12T07:19:36.747Z,0
2018-01-12T07:20:39.441Z,0
2018-01-12T07:21:41.855Z,0
2018-01-12T07:22:44.255Z,0
2018-01-12T07:23:46.950Z,0
2018-01-12T07:24:49.364Z,0
2018-01-12T07:25:51.761Z,0
2018-01-12T07:26:54.184Z,0
2018-01-12T07:27:56.582Z,0
2018-01-12T07:28:58.998Z,0
2018-01-12T07:30:01.403Z,0
2018-01-12T07:31:03.813Z,0
2018-01-12T07:32:06.221Z,0
2018-01-12T07:33:08.647Z,0
2018-01-12T07:34:11.050Z,0
2018-01-12T07:35:13.458Z,0
2018-01-12T07:36:15.865Z,0
2018-01-12T07:37:18.268Z,0
2018-01-12T07:38:20.677Z,1
2018-01-12T07:39:23.095Z,1
2018-01-12T07:40:25.501Z,1
2018-01-12T07:41:27.911Z,1
2018-01-12T07:42:30.593Z,1
2018-01-12T07:43:33.009Z,1
2018-01-12T07:44:35.402Z,1
2018-01-12T07:45:37.817Z,1
2018-01-12T07:46:40.230Z,1
2018-01-12T07:47:42.640Z,1
2018-01-12T07:48:45.049Z,1
2018-01-12T07:49:47.454Z,1
2018-01-12T07:50:49.862Z,1
2018-01-12T07:51:52.554Z,2
2018-01-12T07:52:54.964Z,2
2018-01-12T07:53:57.365Z,2
2018-01-12T07:54:59.772Z,2
2018-01-12T07:56:02.190Z,2
2018-01-12T07:57:05.164Z,2
2018-01-12T07:58:07.572Z,2
2018-01-12T07:59:09.977Z,2
2018-01-12T08:00:12.376Z,2
2018-01-12T08:01:14.796Z,2
2018-01-12T08:02:17.212Z,2
2018-01-12T08:03:19.610Z,2
2018-01-12T08:04:22.030Z,3
2018-01-12T08:05:24.726Z,3
2018-01-12T08:06:27.135Z,3
2018-01-12T08:07:29.835Z,3
2018-01-12T08:08:32.535Z,3
2018-01-12T08:09:34.943Z,3
2018-01-12T08:10:37.370Z,3
2018-01-12T08:11:39.766Z,3
2018-01-12T08:12:42.166Z,3
2018-01-12T08:13:44.578Z,3
2018-01-12T08:14:46.993Z,4
2018-01-12T08:15:49.405Z,3
2018-01-12T08:16:52.392Z,4
2018-01-12T08:17:54.808Z,4
2018-01-12T08:18:57.212Z,4
2018-01-12T08:19:59.634Z,4
2018-01-12T08:21:02.600Z,4
2018-01-12T08:22:05.004Z,5
2018-01-12T08:23:07.418Z,4
2018-01-12T08:24:09.831Z,5
2018-01-12T08:25:12.528Z,5
2018-01-12T08:26:14.949Z,5
2018-01-12T08:27:17.352Z,5
2018-01-12T08:28:19.761Z,5
2018-01-12T08:29:22.174Z,5
2018-01-12T08:30:24.581Z,5
2018-01-12T08:31:26.983Z,5
2018-01-12T08:32:29.404Z,5
2018-01-12T08:33:31.800Z,6
2018-01-12T08:34:34.222Z,5
2018-01-12T08:35:36.625Z,5
2018-01-12T08:36:39.031Z,5
2018-01-12T08:37:41.438Z,6
2018-01-12T08:38:43.846Z,5
2018-01-12T08:39:46.254Z,6
2018-01-12T08:40:48.663Z,5
2018-01-12T08:41:51.358Z,6
2018-01-12T08:42:53.771Z,5
2018-01-12T08:43:56.162Z,5
2018-01-12T08:44:58.580Z,5
2018-01-12T08:46:01.302Z,5
2018-01-12T08:47:04.273Z,6
2018-01-12T08:48:06.690Z,6
2018-01-12T08:49:09.672Z,6
2018-01-12T08:50:12.076Z,7
2018-01-12T08:51:14.496Z,7
2018-01-12T08:52:16.908Z,7
2018-01-12T08:53:19.592Z,7
2018-01-12T08:54:22.008Z,7
2018-01-12T08:55:24.422Z,7
2018-01-12T08:56:26.838Z,8
2018-01-12T08:57:29.248Z,8
2018-01-12T08:58:31.658Z,8
2018-01-12T08:59:34.067Z,8
2018-01-12T09:00:36.491Z,9
2018-01-12T09:01:38.899Z,9
2018-01-12T09:02:41.301Z,9
2018-01-12T09:03:43.994Z,9
2018-01-12T09:04:46.398Z,9
2018-01-12T09:05:48.806Z,9
2018-01-12T09:06:51.213Z,9
2018-01-12T09:07:53.606Z,9
2018-01-12T09:08:56.020Z,9
2018-01-12T09:09:58.431Z,10
2018-01-12T09:11:00.844Z,10
2018-01-12T09:12:03.253Z,9
2018-01-12T09:13:05.659Z,10
2018-01-12T09:14:08.061Z,11
2018-01-12T09:15:10.471Z,10
2018-01-12T09:16:12.872Z,10
2018-01-12T09:17:15.292Z,11
2018-01-12T09:18:17.692Z,11
2018-01-12T09:19:20.389Z,10
2018-01-12T09:20:22.798Z,10
2018-01-12T09:21:25.487Z,10
2018-01-12T09:22:27.893Z,8
2018-01-12T09:23:30.311Z,8
2018-01-12T09:24:32.721Z,7
2018-01-12T09:25:35.129Z,7
2018-01-12T09:26:37.534Z,7
2018-01-12T09:27:39.941Z,7
2018-01-12T09:28:42.355Z,7
2018-01-12T09:29:44.767Z,8
2018-01-12T09:30:47.180Z,8
2018-01-12T09:31:49.584Z,9
2018-01-12T09:32:51.992Z,10
2018-01-12T09:33:54.412Z,11
2018-01-12T09:34:57.095Z,11
2018-01-12T09:35:59.508Z,10
2018-01-12T09:37:01.914Z,10
2018-01-12T09:38:04.321Z,10
2018-01-12T09:39:07.025Z,11
2018-01-12T09:40:09.430Z,12
2018-01-12T09:41:11.845Z,11
2018-01-12T09:42:14.250Z,11
2018-01-12T09:43:16.642Z,12
2018-01-12T09:44:19.062Z,13
2018-01-12T09:45:21.463Z,11
2018-01-12T09:46:23.879Z,11
2018-01-12T09:47:26.285Z,11
2018-01-12T09:48:28.693Z,11
2018-01-12T09:49:31.107Z,11
2018-01-12T09:50:33.807Z,12
2018-01-12T09:51:36.209Z,12
2018-01-12T09:52:38.612Z,12
2018-01-12T09:53:41.023Z,12
2018-01-12T09:54:43.428Z,12
2018-01-12T09:55:45.847Z,12
2018-01-12T09:56:48.260Z,12
2018-01-12T09:57:50.659Z,12
2018-01-12T09:58:53.082Z,12
2018-01-12T09:59:55.770Z,11
2018-01-12T10:00:58.181Z,11
2018-01-12T10:02:00.592Z,12
2018-01-12T10:03:03.003Z,11
2018-01-12T10:04:05.407Z,11
2018-01-12T10:05:07.828Z,11
2018-01-12T10:06:10.225Z,10
2018-01-12T10:07:12.630Z,10
2018-01-12T10:08:15.040Z,11
2018-01-12T10:09:17.439Z,11
2018-01-12T10:10:19.850Z,10
2018-01-12T10:11:22.259Z,11
2018-01-12T10:12:24.667Z,10
2018-01-12T10:13:27.072Z,12
2018-01-12T10:14:29.494Z,12
2018-01-12T10:15:31.902Z,11
2018-01-12T10:16:34.301Z,11
2018-01-12T10:17:36.716Z,10
2018-01-12T10:18:39.129Z,10
2018-01-12T10:19:41.532Z,11
2018-01-12T10:20:43.943Z,9
2018-01-12T10:21:46.353Z,9
2018-01-12T10:22:48.755Z,10
2018-01-12T10:23:51.179Z,8
2018-01-12T10:24:53.574Z,8
2018-01-12T10:25:55.977Z,8
2018-01-12T10:26:58.675Z,10
2018-01-12T10:28:01.076Z,10
2018-01-12T10:29:03.499Z,10
2018-01-12T10:30:05.914Z,10
2018-01-12T10:31:08.593Z,10
2018-01-12T10:32:11.009Z,11
2018-01-12T10:33:13.710Z,13
2018-01-12T10:34:16.117Z,13
2018-01-12T10:35:18.533Z,14
2018-01-12T10:36:20.943Z,13
2018-01-12T10:37:23.355Z,13
2018-01-12T10:38:25.769Z,11
2018-01-12T10:39:28.181Z,12
2018-01-12T10:40:30.585Z,11
2018-01-12T10:41:33.278Z,12
2018-01-12T10:42:35.971Z,13
2018-01-12T10:43:38.376Z,12
2018-01-12T10:44:40.785Z,12
2018-01-12T10:45:43.237Z,11
2018-01-12T10:46:45.599Z,10
2018-01-12T10:47:48.012Z,10
2018-01-12T10:48:50.412Z,10
2018-01-12T10:49:52.814Z,10
2018-01-12T10:50:55.498Z,10
2018-01-12T10:51:57.909Z,10
2018-01-12T10:53:00.321Z,10
2018-01-12T10:54:02.728Z,10
2018-01-12T10:55:05.125Z,11
2018-01-12T10:56:07.568Z,11
2018-01-12T10:57:10.231Z,11
2018-01-12T10:58:12.635Z,11
2018-01-12T10:59:15.049Z,11
2018-01-12T11:00:17.455Z,12
2018-01-12T11:01:20.445Z,12
2018-01-12T11:02:23.413Z,12
2018-01-12T11:03:25.879Z,12
2018-01-12T11:04:28.287Z,12
2018-01-12T11:05:30.691Z,13
2018-01-12T11:06:33.381Z,14
2018-01-12T11:07:35.794Z,12
2018-01-12T11:08:38.193Z,15
2018-01-12T11:09:40.609Z,16
2018-01-12T11:10:43.020Z,16
2018-01-12T11:11:45.431Z,17
2018-01-12T11:12:47.848Z,15
2018-01-12T11:13:50.254Z,14
2018-01-12T11:14:52.675Z,12
2018-01-12T11:15:55.361Z,13
2018-01-12T11:16:57.772Z,12
2018-01-12T11:18:00.182Z,13
2018-01-12T11:19:02.584Z,12
2018-01-12T11:20:05.000Z,10
2018-01-12T11:21:07.698Z,11
2018-01-12T11:22:10.107Z,13
2018-01-12T11:23:12.527Z,12
2018-01-12T11:24:14.933Z,12
2018-01-12T11:25:17.344Z,13
2018-01-12T11:26:19.749Z,13
2018-01-12T11:27:22.162Z,13
2018-01-12T11:28:24.574Z,14
2018-01-12T11:29:26.990Z,12
2018-01-12T11:30:29.386Z,12
2018-01-12T11:31:31.803Z,12
2018-01-12T11:32:34.215Z,11
2018-01-12T11:33:36.908Z,11
2018-01-12T11:34:39.322Z,10
2018-01-12T11:35:41.722Z,11
2018-01-12T11:36:44.129Z,11
2018-01-12T11:37:46.845Z,11
2018-01-12T11:38:49.236Z,10
2018-01-12T11:39:51.637Z,11
2018-01-12T11:40:54.343Z,10
2018-01-12T11:41:56.754Z,10
2018-01-12T11:42:59.166Z,8
2018-01-12T11:44:01.575Z,8
2018-01-12T11:45:03.981Z,7
2018-01-12T11:46:06.394Z,7
2018-01-12T11:47:08.808Z,7
2018-01-12T11:48:11.217Z,6
2018-01-12T11:49:13.631Z,6
2018-01-12T11:50:16.029Z,6
2018-01-12T11:51:18.441Z,6
2018-01-12T11:52:20.854Z,6
2018-01-12T11:53:23.274Z,6
2018-01-12T11:54:25.665Z,6
2018-01-12T11:55:28.082Z,6
2018-01-12T11:56:31.058Z,7
2018-01-12T11:57:33.462Z,7
2018-01-12T11:58:35.875Z,7
2018-01-12T11:59:38.279Z,7
2018-01-12T12:00:40.691Z,8
2018-01-12T12:01:43.108Z,7
2018-01-12T12:02:45.518Z,6
2018-01-12T12:03:47.916Z,6
2018-01-12T12:04:50.331Z,6
2018-01-12T12:05:52.747Z,7
2018-01-12T12:06:55.159Z,7
2018-01-12T12:07:57.569Z,8
2018-01-12T12:08:59.982Z,9
2018-01-12T12:10:02.386Z,9
2018-01-12T12:11:04.800Z,9
2018-01-12T12:12:07.204Z,9
2018-01-12T12:13:09.611Z,10
2018-01-12T12:14:12.022Z,8
2018-01-12T12:15:14.432Z,8
2018-01-12T12:16:17.409Z,9
2018-01-12T12:17:19.821Z,9
2018-01-12T12:18:22.227Z,8
2018-01-12T12:19:24.636Z,9
2018-01-12T12:20:27.346Z,8
2018-01-12T12:21:29.755Z,8
2018-01-12T12:22:32.160Z,9
2018-01-12T12:23:34.578Z,9
2018-01-12T12:24:36.984Z,9
2018-01-12T12:25:39.393Z,10
2018-01-12T12:26:41.809Z,9
2018-01-12T12:27:44.208Z,9
2018-01-12T12:28:46.619Z,10
2018-01-12T12:29:49.037Z,10
2018-01-12T12:30:51.437Z,9
2018-01-12T12:31:53.847Z,8
2018-01-12T12:32:56.264Z,9
2018-01-12T12:33:58.668Z,8
2018-01-12T12:35:01.081Z,7
2018-01-12T12:36:03.498Z,8
2018-01-12T12:37:06.169Z,9
2018-01-12T12:38:08.591Z,9
2018-01-12T12:39:11.000Z,8
2018-01-12T12:40:13.408Z,7
2018-01-12T12:41:15.815Z,7
2018-01-12T12:42:18.237Z,7
2018-01-12T12:43:20.647Z,8
2018-01-12T12:44:23.043Z,7
2018-01-12T12:45:25.464Z,7
2018-01-12T12:46:28.161Z,7
2018-01-12T12:47:30.573Z,7
2018-01-12T12:48:32.992Z,7
2018-01-12T12:49:35.402Z,7
2018-01-12T12:50:37.814Z,7
2018-01-12T12:51:40.227Z,6
2018-01-12T12:52:42.635Z,7
2018-01-12T12:53:45.047Z,6
2018-01-12T12:54:47.449Z,7
2018-01-12T12:55:49.854Z,7
2018-01-12T12:56:52.259Z,8
2018-01-12T12:57:54.672Z,8
2018-01-12T12:58:57.373Z,8
2018-01-12T12:59:59.790Z,8
2018-01-12T13:01:02.191Z,10
2018-01-12T13:02:04.609Z,9
2018-01-12T13:03:07.027Z,9
2018-01-12T13:04:09.445Z,9
2018-01-12T13:05:12.422Z,10
2018-01-12T13:06:15.399Z,9
2018-01-12T13:07:17.818Z,9
2018-01-12T13:08:20.212Z,9
2018-01-12T13:09:22.624Z,10
2018-01-12T13:10:25.051Z,10
2018-01-12T13:11:27.452Z,10
2018-01-12T13:12:29.880Z,12
2018-01-12T13:13:32.288Z,11
2018-01-12T13:14:34.696Z,12
2018-01-12T13:15:37.113Z,13
2018-01-12T13:16:39.521Z,10
2018-01-12T13:17:41.924Z,10
2018-01-12T13:18:44.628Z,9
2018-01-12T13:19:47.314Z,9
2018-01-12T13:20:49.723Z,12
2018-01-12T13:21:52.135Z,10
2018-01-12T13:22:54.542Z,11
2018-01-12T13:23:56.949Z,11
2018-01-12T13:24:59.360Z,11
2018-01-12T13:26:01.765Z,10
2018-01-12T13:27:04.177Z,11
2018-01-12T13:28:06.577Z,10
2018-01-12T13:29:08.998Z,10
2018-01-12T13:30:11.410Z,11
2018-01-12T13:31:13.820Z,11
2018-01-12T13:32:16.236Z,11
2018-01-12T13:33:18.642Z,10
2018-01-12T13:34:21.056Z,9
2018-01-12T13:35:23.473Z,9
2018-01-12T13:36:25.872Z,8
2018-01-12T13:37:28.292Z,9
2018-01-12T13:38:30.704Z,8
2018-01-12T13:39:33.113Z,8
2018-01-12T13:40:35.520Z,9
2018-01-12T13:41:37.947Z,9
2018-01-12T13:42:40.346Z,9
2018-01-12T13:43:42.751Z,9
2018-01-12T13:44:45.163Z,11
2018-01-12T13:45:47.564Z,10
2018-01-12T13:46:49.977Z,9
2018-01-12T13:47:52.677Z,9
2018-01-12T13:48:55.083Z,9
2018-01-12T13:49:57.496Z,10
2018-01-12T13:50:59.909Z,9
2018-01-12T13:52:02.321Z,8
2018-01-12T13:53:05.042Z,9
2018-01-12T13:54:07.448Z,7
2018-01-12T13:55:09.857Z,7
2018-01-12T13:56:12.263Z,6
2018-01-12T13:57:14.680Z,6
2018-01-12T13:58:17.097Z,6
2018-01-12T13:59:19.828Z,6
2018-01-12T14:00:22.220Z,5
2018-01-12T14:01:24.634Z,6
2018-01-12T14:02:27.052Z,5
2018-01-12T14:03:29.459Z,5
2018-01-12T14:04:31.865Z,6
2018-01-12T14:05:34.266Z,6
2018-01-12T14:06:36.669Z,6
2018-01-12T14:07:39.091Z,6
2018-01-12T14:08:41.784Z,5
2018-01-12T14:09:44.201Z,6
2018-01-12T14:10:46.609Z,6
2018-01-12T14:11:49.027Z,6
2018-01-12T14:12:51.440Z,5
2018-01-12T14:13:53.859Z,5
2018-01-12T14:14:56.252Z,4
2018-01-12T14:15:58.663Z,5
2018-01-12T14:17:01.076Z,4
2018-01-12T14:18:03.763Z,5
2018-01-12T14:19:06.459Z,5
2018-01-12T14:20:08.861Z,6
2018-01-12T14:21:11.273Z,5
2018-01-12T14:22:13.677Z,6
2018-01-12T14:23:16.093Z,5
2018-01-12T14:24:18.498Z,5
2018-01-12T14:25:21.179Z,7
2018-01-12T14:26:23.608Z,6
2018-01-12T14:27:26.016Z,6
2018-01-12T14:28:28.431Z,7
2018-01-12T14:29:31.130Z,7
2018-01-12T14:30:33.534Z,6
2018-01-12T14:31:35.942Z,5
2018-01-12T14:32:38.357Z,5
2018-01-12T14:33:40.761Z,4
2018-01-12T14:34:43.170Z,5
2018-01-12T14:35:45.590Z,4
2018-01-12T14:36:48.005Z,3
2018-01-12T14:37:50.416Z,3
2018-01-12T14:38:52.834Z,3
2018-01-12T14:39:55.242Z,4
2018-01-12T14:40:57.641Z,3
2018-01-12T14:42:00.061Z,4
2018-01-12T14:43:02.469Z,4
2018-01-12T14:44:04.875Z,4
2018-01-12T14:45:07.275Z,4
2018-01-12T14:46:09.684Z,4
2018-01-12T14:47:12.088Z,4
2018-01-12T14:48:14.513Z,4
2018-01-12T14:49:16.920Z,3
2018-01-12T14:50:19.318Z,3
2018-01-12T14:51:21.733Z,3
2018-01-12T14:52:24.146Z,3
2018-01-12T14:53:26.556Z,2
2018-01-12T14:54:29.244Z,2
2018-01-12T14:55:31.658Z,2
2018-01-12T14:56:34.067Z,2
2018-01-12T14:57:36.484Z,2
2018-01-12T14:58:38.893Z,2
2018-01-12T14:59:41.295Z,2
2018-01-12T15:00:43.705Z,2
2018-01-12T15:01:46.406Z,2
2018-01-12T15:02:48.871Z,2
2018-01-12T15:03:51.285Z,1
2018-01-12T15:04:53.693Z,1
2018-01-12T15:05:56.106Z,1
2018-01-12T15:06:58.525Z,1
2018-01-12T15:08:00.935Z,1
2018-01-12T15:09:03.335Z,1
2018-01-12T15:10:05.750Z,1
2018-01-12T15:11:08.166Z,1
2018-01-12T15:12:10.570Z,1
2018-01-12T15:13:12.986Z,1
2018-01-12T15:14:15.379Z,1
2018-01-12T15:15:17.794Z,1
2018-01-12T15:16:20.495Z,0
2018-01-12T15:17:23.186Z,0